sensor_id;sensor_type;location;lat;lon;timestamp;P1;durP1;ratioP1;P2;durP2;ratioP2
41061;SDS011;26812;42.662;23.352;2023-05-07T00:01:03;8.15;;;4.63;;
41061;SDS011;26812;42.662;23.352;2023-05-07T00:03:30;7.13;;;5.03;;
41061;SDS011;26812;42.662;23.352;2023-05-07T00:05:56;8.07;;;5.38;;
41061;SDS011;26812;42.662;23.352;2023-05-07T00:08:21;6.70;;;5.60;;
41061;SDS011;26812;42.662;23.352;2023-05-07T00:10:47;9.55;;;5.10;;
41061;SDS011;26812;42.662;23.352;2023-05-07T00:13:12;9.23;;;5.50;;
41061;SDS011;26812;42.662;23.352;2023-05-07T00:15:38;8.93;;;6.05;;
41061;SDS011;26812;42.662;23.352;2023-05-07T00:18:03;9.43;;;5.80;;
41061;SDS011;26812;42.662;23.352;2023-05-07T00:20:29;7.65;;;6.28;;
41061;SDS011;26812;42.662;23.352;2023-05-07T00:22:54;7.25;;;5.75;;
41061;SDS011;26812;42.662;23.352;2023-05-07T00:25:20;7.65;;;6.57;;
41061;SDS011;26812;42.662;23.352;2023-05-07T00:27:45;9.25;;;6.13;;
41061;SDS011;26812;42.662;23.352;2023-05-07T00:30:11;9.95;;;8.10;;
41061;SDS011;26812;42.662;23.352;2023-05-07T00:32:37;9.85;;;7.85;;
41061;SDS011;26812;42.662;23.352;2023-05-07T00:35:03;12.32;;;7.70;;
41061;SDS011;26812;42.662;23.352;2023-05-07T00:37:29;9.45;;;6.97;;
41061;SDS011;26812;42.662;23.352;2023-05-07T00:39:55;10.07;;;7.32;;
41061;SDS011;26812;42.662;23.352;2023-05-07T00:42:21;9.75;;;7.55;;
41061;SDS011;26812;42.662;23.352;2023-05-07T00:44:47;12.02;;;7.47;;
41061;SDS011;26812;42.662;23.352;2023-05-07T00:47:12;8.75;;;6.93;;
41061;SDS011;26812;42.662;23.352;2023-05-07T00:49:39;8.95;;;6.90;;
41061;SDS011;26812;42.662;23.352;2023-05-07T00:52:07;9.65;;;7.82;;
41061;SDS011;26812;42.662;23.352;2023-05-07T00:54:34;7.97;;;6.35;;
41061;SDS011;26812;42.662;23.352;2023-05-07T00:57:01;10.48;;;6.90;;
41061;SDS011;26812;42.662;23.352;2023-05-07T00:59:28;9.48;;;6.72;;
41061;SDS011;26812;42.662;23.352;2023-05-07T01:01:53;9.40;;;7.07;;
41061;SDS011;26812;42.662;23.352;2023-05-07T01:04:19;11.95;;;7.32;;
41061;SDS011;26812;42.662;23.352;2023-05-07T01:06:44;11.40;;;7.65;;
41061;SDS011;26812;42.662;23.352;2023-05-07T01:09:11;8.48;;;6.90;;
41061;SDS011;26812;42.662;23.352;2023-05-07T01:11:38;10.05;;;7.00;;
41061;SDS011;26812;42.662;23.352;2023-05-07T01:14:04;8.48;;;7.38;;
41061;SDS011;26812;42.662;23.352;2023-05-07T01:16:30;6.43;;;5.57;;
41061;SDS011;26812;42.662;23.352;2023-05-07T01:18:56;10.60;;;7.07;;
41061;SDS011;26812;42.662;23.352;2023-05-07T01:21:24;8.23;;;5.50;;
41061;SDS011;26812;42.662;23.352;2023-05-07T01:23:51;5.45;;;4.85;;
41061;SDS011;26812;42.662;23.352;2023-05-07T01:26:18;5.03;;;4.53;;
41061;SDS011;26812;42.662;23.352;2023-05-07T01:28:45;5.15;;;4.65;;
41061;SDS011;26812;42.662;23.352;2023-05-07T01:31:10;5.75;;;4.45;;
41061;SDS011;26812;42.662;23.352;2023-05-07T01:33:38;6.00;;;4.50;;
41061;SDS011;26812;42.662;23.352;2023-05-07T01:36:06;5.35;;;4.68;;
41061;SDS011;26812;42.662;23.352;2023-05-07T01:38:33;5.70;;;5.00;;
41061;SDS011;26812;42.662;23.352;2023-05-07T01:41:01;5.63;;;3.97;;
41061;SDS011;26812;42.662;23.352;2023-05-07T01:43:28;5.15;;;4.10;;
41061;SDS011;26812;42.662;23.352;2023-05-07T01:45:54;4.55;;;3.92;;
41061;SDS011;26812;42.662;23.352;2023-05-07T01:48:20;6.03;;;3.72;;
41061;SDS011;26812;42.662;23.352;2023-05-07T01:50:46;4.90;;;3.58;;
41061;SDS011;26812;42.662;23.352;2023-05-07T01:53:12;5.05;;;4.40;;
41061;SDS011;26812;42.662;23.352;2023-05-07T01:55:38;5.78;;;4.35;;
41061;SDS011;26812;42.662;23.352;2023-05-07T01:58:04;5.00;;;3.95;;
41061;SDS011;26812;42.662;23.352;2023-05-07T02:00:30;4.97;;;4.22;;
41061;SDS011;26812;42.662;23.352;2023-05-07T02:02:56;6.93;;;4.53;;
41061;SDS011;26812;42.662;23.352;2023-05-07T02:05:22;6.50;;;4.15;;
41061;SDS011;26812;42.662;23.352;2023-05-07T02:07:47;6.28;;;4.00;;
41061;SDS011;26812;42.662;23.352;2023-05-07T02:10:13;10.23;;;5.20;;
41061;SDS011;26812;42.662;23.352;2023-05-07T02:12:38;6.90;;;5.30;;
41061;SDS011;26812;42.662;23.352;2023-05-07T02:15:04;8.48;;;5.63;;
41061;SDS011;26812;42.662;23.352;2023-05-07T02:17:30;6.20;;;5.47;;
41061;SDS011;26812;42.662;23.352;2023-05-07T02:19:57;7.70;;;6.25;;
41061;SDS011;26812;42.662;23.352;2023-05-07T02:22:23;7.55;;;5.25;;
41061;SDS011;26812;42.662;23.352;2023-05-07T02:24:48;6.20;;;5.50;;
41061;SDS011;26812;42.662;23.352;2023-05-07T02:27:14;6.47;;;5.82;;
41061;SDS011;26812;42.662;23.352;2023-05-07T02:29:40;6.72;;;5.72;;
41061;SDS011;26812;42.662;23.352;2023-05-07T02:32:05;7.10;;;5.90;;
41061;SDS011;26812;42.662;23.352;2023-05-07T02:34:31;8.65;;;4.88;;
41061;SDS011;26812;42.662;23.352;2023-05-07T02:36:56;6.35;;;5.50;;
41061;SDS011;26812;42.662;23.352;2023-05-07T02:39:22;6.10;;;5.47;;
41061;SDS011;26812;42.662;23.352;2023-05-07T02:41:47;5.60;;;4.78;;
41061;SDS011;26812;42.662;23.352;2023-05-07T02:44:12;7.35;;;5.78;;
41061;SDS011;26812;42.662;23.352;2023-05-07T02:46:38;7.20;;;5.80;;
41061;SDS011;26812;42.662;23.352;2023-05-07T02:49:03;5.90;;;5.18;;
41061;SDS011;26812;42.662;23.352;2023-05-07T02:51:29;6.80;;;5.88;;
41061;SDS011;26812;42.662;23.352;2023-05-07T02:53:55;7.38;;;6.65;;
41061;SDS011;26812;42.662;23.352;2023-05-07T02:56:21;7.90;;;5.25;;
41061;SDS011;26812;42.662;23.352;2023-05-07T02:58:46;9.13;;;6.95;;
41061;SDS011;26812;42.662;23.352;2023-05-07T03:01:12;9.27;;;6.30;;
41061;SDS011;26812;42.662;23.352;2023-05-07T03:03:38;8.15;;;6.28;;
41061;SDS011;26812;42.662;23.352;2023-05-07T03:06:04;9.57;;;6.20;;
41061;SDS011;26812;42.662;23.352;2023-05-07T03:08:30;5.78;;;5.18;;
41061;SDS011;26812;42.662;23.352;2023-05-07T03:10:55;7.03;;;5.43;;
41061;SDS011;26812;42.662;23.352;2023-05-07T03:13:21;6.93;;;5.88;;
41061;SDS011;26812;42.662;23.352;2023-05-07T03:15:46;7.47;;;5.45;;
41061;SDS011;26812;42.662;23.352;2023-05-07T03:18:12;9.35;;;6.65;;
41061;SDS011;26812;42.662;23.352;2023-05-07T03:20:37;7.90;;;6.40;;
41061;SDS011;26812;42.662;23.352;2023-05-07T03:23:02;7.85;;;5.45;;
41061;SDS011;26812;42.662;23.352;2023-05-07T03:25:28;8.35;;;6.53;;
41061;SDS011;26812;42.662;23.352;2023-05-07T03:27:55;8.73;;;6.72;;
41061;SDS011;26812;42.662;23.352;2023-05-07T03:30:21;6.97;;;6.13;;
41061;SDS011;26812;42.662;23.352;2023-05-07T03:32:46;10.82;;;7.20;;
41061;SDS011;26812;42.662;23.352;2023-05-07T03:35:11;10.68;;;5.90;;
41061;SDS011;26812;42.662;23.352;2023-05-07T03:37:37;8.82;;;7.03;;
41061;SDS011;26812;42.662;23.352;2023-05-07T03:40:03;9.30;;;6.45;;
41061;SDS011;26812;42.662;23.352;2023-05-07T03:42:30;9.50;;;7.45;;
41061;SDS011;26812;42.662;23.352;2023-05-07T03:44:55;9.15;;;7.05;;
41061;SDS011;26812;42.662;23.352;2023-05-07T03:47:21;9.73;;;7.18;;
41061;SDS011;26812;42.662;23.352;2023-05-07T03:49:46;9.07;;;7.18;;
41061;SDS011;26812;42.662;23.352;2023-05-07T03:52:13;11.75;;;7.53;;
41061;SDS011;26812;42.662;23.352;2023-05-07T03:54:38;11.18;;;7.32;;
41061;SDS011;26812;42.662;23.352;2023-05-07T03:57:04;9.73;;;6.30;;
41061;SDS011;26812;42.662;23.352;2023-05-07T03:59:29;9.77;;;7.35;;
41061;SDS011;26812;42.662;23.352;2023-05-07T04:01:54;10.02;;;7.10;;
41061;SDS011;26812;42.662;23.352;2023-05-07T04:04:20;10.75;;;7.07;;
41061;SDS011;26812;42.662;23.352;2023-05-07T04:06:46;10.73;;;7.35;;
41061;SDS011;26812;42.662;23.352;2023-05-07T04:09:11;10.15;;;6.95;;
41061;SDS011;26812;42.662;23.352;2023-05-07T04:11:37;10.35;;;7.00;;
41061;SDS011;26812;42.662;23.352;2023-05-07T04:14:02;9.75;;;6.93;;
41061;SDS011;26812;42.662;23.352;2023-05-07T04:16:27;12.55;;;7.30;;
41061;SDS011;26812;42.662;23.352;2023-05-07T04:18:53;9.70;;;6.97;;
41061;SDS011;26812;42.662;23.352;2023-05-07T04:21:19;8.05;;;6.80;;
41061;SDS011;26812;42.662;23.352;2023-05-07T04:23:45;11.02;;;6.93;;
41061;SDS011;26812;42.662;23.352;2023-05-07T04:26:11;14.45;;;7.88;;
41061;SDS011;26812;42.662;23.352;2023-05-07T04:28:37;11.75;;;7.03;;
41061;SDS011;26812;42.662;23.352;2023-05-07T04:31:03;9.85;;;7.55;;
41061;SDS011;26812;42.662;23.352;2023-05-07T04:33:28;11.57;;;7.28;;
41061;SDS011;26812;42.662;23.352;2023-05-07T04:35:54;12.48;;;7.10;;
41061;SDS011;26812;42.662;23.352;2023-05-07T04:38:19;8.50;;;6.20;;
41061;SDS011;26812;42.662;23.352;2023-05-07T04:40:44;10.25;;;8.40;;
41061;SDS011;26812;42.662;23.352;2023-05-07T04:43:11;8.02;;;7.00;;
41061;SDS011;26812;42.662;23.352;2023-05-07T04:45:38;9.00;;;6.50;;
41061;SDS011;26812;42.662;23.352;2023-05-07T04:48:06;7.40;;;5.95;;
41061;SDS011;26812;42.662;23.352;2023-05-07T04:50:31;9.85;;;6.82;;
41061;SDS011;26812;42.662;23.352;2023-05-07T04:52:57;8.50;;;6.97;;
41061;SDS011;26812;42.662;23.352;2023-05-07T04:55:22;9.93;;;7.10;;
41061;SDS011;26812;42.662;23.352;2023-05-07T04:57:48;8.20;;;6.28;;
41061;SDS011;26812;42.662;23.352;2023-05-07T05:00:13;10.20;;;7.18;;
41061;SDS011;26812;42.662;23.352;2023-05-07T05:02:40;7.38;;;6.13;;
41061;SDS011;26812;42.662;23.352;2023-05-07T05:05:06;10.05;;;6.22;;
41061;SDS011;26812;42.662;23.352;2023-05-07T05:07:32;8.88;;;6.30;;
41061;SDS011;26812;42.662;23.352;2023-05-07T05:09:58;8.07;;;6.28;;
41061;SDS011;26812;42.662;23.352;2023-05-07T05:12:24;8.15;;;7.30;;
41061;SDS011;26812;42.662;23.352;2023-05-07T05:14:49;11.63;;;7.00;;
41061;SDS011;26812;42.662;23.352;2023-05-07T05:17:15;8.82;;;7.15;;
41061;SDS011;26812;42.662;23.352;2023-05-07T05:19:40;11.85;;;7.80;;
41061;SDS011;26812;42.662;23.352;2023-05-07T05:22:05;10.30;;;6.57;;
41061;SDS011;26812;42.662;23.352;2023-05-07T05:24:31;11.02;;;6.85;;
41061;SDS011;26812;42.662;23.352;2023-05-07T05:26:56;12.07;;;7.40;;
41061;SDS011;26812;42.662;23.352;2023-05-07T05:29:22;9.80;;;7.35;;
41061;SDS011;26812;42.662;23.352;2023-05-07T05:31:47;10.48;;;6.72;;
41061;SDS011;26812;42.662;23.352;2023-05-07T05:34:13;11.90;;;7.35;;
41061;SDS011;26812;42.662;23.352;2023-05-07T05:36:38;9.43;;;6.85;;
41061;SDS011;26812;42.662;23.352;2023-05-07T05:39:04;11.88;;;7.50;;
41061;SDS011;26812;42.662;23.352;2023-05-07T05:41:29;9.98;;;8.43;;
41061;SDS011;26812;42.662;23.352;2023-05-07T05:43:55;11.68;;;6.85;;
41061;SDS011;26812;42.662;23.352;2023-05-07T05:46:21;10.45;;;6.85;;
41061;SDS011;26812;42.662;23.352;2023-05-07T05:48:46;9.43;;;6.95;;
41061;SDS011;26812;42.662;23.352;2023-05-07T05:51:12;11.93;;;8.15;;
41061;SDS011;26812;42.662;23.352;2023-05-07T05:53:37;12.68;;;8.20;;
41061;SDS011;26812;42.662;23.352;2023-05-07T05:56:02;9.93;;;6.97;;
41061;SDS011;26812;42.662;23.352;2023-05-07T05:58:28;9.80;;;7.45;;
41061;SDS011;26812;42.662;23.352;2023-05-07T06:00:53;11.15;;;7.10;;
41061;SDS011;26812;42.662;23.352;2023-05-07T06:03:19;9.27;;;6.80;;
41061;SDS011;26812;42.662;23.352;2023-05-07T06:05:45;7.93;;;5.97;;
41061;SDS011;26812;42.662;23.352;2023-05-07T06:08:10;9.57;;;6.38;;
41061;SDS011;26812;42.662;23.352;2023-05-07T06:10:36;13.65;;;7.50;;
41061;SDS011;26812;42.662;23.352;2023-05-07T06:13:02;9.63;;;6.75;;
41061;SDS011;26812;42.662;23.352;2023-05-07T06:15:27;9.70;;;6.28;;
41061;SDS011;26812;42.662;23.352;2023-05-07T06:17:53;7.18;;;5.75;;
41061;SDS011;26812;42.662;23.352;2023-05-07T06:20:20;11.07;;;6.78;;
41061;SDS011;26812;42.662;23.352;2023-05-07T06:22:46;8.52;;;6.30;;
41061;SDS011;26812;42.662;23.352;2023-05-07T06:25:11;7.25;;;5.38;;
41061;SDS011;26812;42.662;23.352;2023-05-07T06:27:37;5.40;;;4.70;;
41061;SDS011;26812;42.662;23.352;2023-05-07T06:30:04;7.78;;;6.07;;
41061;SDS011;26812;42.662;23.352;2023-05-07T06:32:30;7.97;;;6.13;;
41061;SDS011;26812;42.662;23.352;2023-05-07T06:34:56;7.78;;;5.57;;
41061;SDS011;26812;42.662;23.352;2023-05-07T06:37:21;8.95;;;6.18;;
41061;SDS011;26812;42.662;23.352;2023-05-07T06:39:53;7.45;;;6.22;;
41061;SDS011;26812;42.662;23.352;2023-05-07T06:42:18;8.80;;;6.55;;
41061;SDS011;26812;42.662;23.352;2023-05-07T06:44:44;9.85;;;6.22;;
41061;SDS011;26812;42.662;23.352;2023-05-07T06:47:09;6.95;;;5.45;;
41061;SDS011;26812;42.662;23.352;2023-05-07T06:49:34;7.38;;;6.07;;
41061;SDS011;26812;42.662;23.352;2023-05-07T06:52:00;10.00;;;6.10;;
41061;SDS011;26812;42.662;23.352;2023-05-07T06:54:25;6.53;;;5.38;;
41061;SDS011;26812;42.662;23.352;2023-05-07T06:56:51;8.23;;;4.88;;
41061;SDS011;26812;42.662;23.352;2023-05-07T06:59:16;8.10;;;6.25;;
41061;SDS011;26812;42.662;23.352;2023-05-07T07:01:41;10.27;;;6.93;;
41061;SDS011;26812;42.662;23.352;2023-05-07T07:04:07;7.82;;;5.53;;
41061;SDS011;26812;42.662;23.352;2023-05-07T07:06:32;6.65;;;5.35;;
41061;SDS011;26812;42.662;23.352;2023-05-07T07:08:58;10.18;;;6.55;;
41061;SDS011;26812;42.662;23.352;2023-05-07T07:11:24;8.07;;;5.78;;
41061;SDS011;26812;42.662;23.352;2023-05-07T07:13:50;9.27;;;5.60;;
41061;SDS011;26812;42.662;23.352;2023-05-07T07:16:15;9.10;;;6.05;;
41061;SDS011;26812;42.662;23.352;2023-05-07T07:18:41;10.95;;;6.00;;
41061;SDS011;26812;42.662;23.352;2023-05-07T07:21:07;8.32;;;6.03;;
41061;SDS011;26812;42.662;23.352;2023-05-07T07:23:32;6.50;;;5.22;;
41061;SDS011;26812;42.662;23.352;2023-05-07T07:25:58;8.30;;;5.40;;
41061;SDS011;26812;42.662;23.352;2023-05-07T07:28:23;7.78;;;5.97;;
41061;SDS011;26812;42.662;23.352;2023-05-07T07:30:49;6.43;;;5.07;;
41061;SDS011;26812;42.662;23.352;2023-05-07T07:33:14;6.88;;;5.57;;
41061;SDS011;26812;42.662;23.352;2023-05-07T07:35:47;8.50;;;6.65;;
41061;SDS011;26812;42.662;23.352;2023-05-07T07:38:12;7.03;;;5.57;;
41061;SDS011;26812;42.662;23.352;2023-05-07T07:40:38;9.40;;;5.80;;
41061;SDS011;26812;42.662;23.352;2023-05-07T07:43:04;10.15;;;5.97;;
41061;SDS011;26812;42.662;23.352;2023-05-07T07:45:29;8.23;;;5.65;;
41061;SDS011;26812;42.662;23.352;2023-05-07T07:47:55;9.45;;;6.97;;
41061;SDS011;26812;42.662;23.352;2023-05-07T07:50:20;8.15;;;5.55;;
41061;SDS011;26812;42.662;23.352;2023-05-07T07:52:46;7.68;;;5.72;;
41061;SDS011;26812;42.662;23.352;2023-05-07T07:55:13;5.57;;;4.22;;
41061;SDS011;26812;42.662;23.352;2023-05-07T07:57:43;7.45;;;5.88;;
41061;SDS011;26812;42.662;23.352;2023-05-07T08:00:08;9.32;;;6.68;;
41061;SDS011;26812;42.662;23.352;2023-05-07T08:02:34;9.52;;;6.43;;
41061;SDS011;26812;42.662;23.352;2023-05-07T08:04:59;7.85;;;5.95;;
41061;SDS011;26812;42.662;23.352;2023-05-07T08:07:25;8.93;;;5.65;;
41061;SDS011;26812;42.662;23.352;2023-05-07T08:09:50;7.63;;;5.65;;
41061;SDS011;26812;42.662;23.352;2023-05-07T08:12:16;8.15;;;6.07;;
41061;SDS011;26812;42.662;23.352;2023-05-07T08:14:41;8.45;;;6.13;;
41061;SDS011;26812;42.662;23.352;2023-05-07T08:17:07;9.38;;;5.72;;
41061;SDS011;26812;42.662;23.352;2023-05-07T08:19:34;7.72;;;6.20;;
41061;SDS011;26812;42.662;23.352;2023-05-07T08:22:00;7.13;;;5.47;;
41061;SDS011;26812;42.662;23.352;2023-05-07T08:24:25;9.18;;;6.80;;
41061;SDS011;26812;42.662;23.352;2023-05-07T08:26:51;6.57;;;5.47;;
41061;SDS011;26812;42.662;23.352;2023-05-07T08:29:16;8.05;;;5.78;;
41061;SDS011;26812;42.662;23.352;2023-05-07T08:31:41;6.43;;;5.65;;
41061;SDS011;26812;42.662;23.352;2023-05-07T08:34:07;6.22;;;4.40;;
41061;SDS011;26812;42.662;23.352;2023-05-07T08:36:32;6.38;;;5.63;;
41061;SDS011;26812;42.662;23.352;2023-05-07T08:38:58;8.85;;;5.93;;
41061;SDS011;26812;42.662;23.352;2023-05-07T08:41:24;5.82;;;4.82;;
41061;SDS011;26812;42.662;23.352;2023-05-07T08:43:50;6.47;;;5.38;;
41061;SDS011;26812;42.662;23.352;2023-05-07T08:46:17;7.07;;;5.57;;
41061;SDS011;26812;42.662;23.352;2023-05-07T08:48:44;8.93;;;5.45;;
41061;SDS011;26812;42.662;23.352;2023-05-07T08:51:13;7.10;;;4.90;;
41061;SDS011;26812;42.662;23.352;2023-05-07T08:53:41;7.03;;;5.13;;
41061;SDS011;26812;42.662;23.352;2023-05-07T08:56:08;7.32;;;5.25;;
41061;SDS011;26812;42.662;23.352;2023-05-07T08:58:34;6.13;;;5.05;;
41061;SDS011;26812;42.662;23.352;2023-05-07T09:01:01;5.00;;;4.40;;
41061;SDS011;26812;42.662;23.352;2023-05-07T09:03:30;4.75;;;3.90;;
41061;SDS011;26812;42.662;23.352;2023-05-07T09:05:56;5.22;;;4.38;;
41061;SDS011;26812;42.662;23.352;2023-05-07T09:08:24;7.03;;;4.75;;
41061;SDS011;26812;42.662;23.352;2023-05-07T09:10:51;5.03;;;4.15;;
41061;SDS011;26812;42.662;23.352;2023-05-07T09:13:17;6.32;;;4.75;;
41061;SDS011;26812;42.662;23.352;2023-05-07T09:15:43;5.78;;;4.07;;
41061;SDS011;26812;42.662;23.352;2023-05-07T09:18:08;5.13;;;3.15;;
41061;SDS011;26812;42.662;23.352;2023-05-07T09:20:36;5.82;;;4.15;;
41061;SDS011;26812;42.662;23.352;2023-05-07T09:23:02;5.65;;;4.18;;
41061;SDS011;26812;42.662;23.352;2023-05-07T09:25:28;5.50;;;4.05;;
41061;SDS011;26812;42.662;23.352;2023-05-07T09:27:55;4.65;;;3.95;;
41061;SDS011;26812;42.662;23.352;2023-05-07T09:30:20;6.72;;;4.97;;
41061;SDS011;26812;42.662;23.352;2023-05-07T09:32:46;4.32;;;3.72;;
41061;SDS011;26812;42.662;23.352;2023-05-07T09:35:15;4.28;;;3.83;;
41061;SDS011;26812;42.662;23.352;2023-05-07T09:37:46;4.53;;;3.43;;
41061;SDS011;26812;42.662;23.352;2023-05-07T09:40:26;4.28;;;3.38;;
41061;SDS011;26812;42.662;23.352;2023-05-07T09:42:54;4.03;;;3.63;;
41061;SDS011;26812;42.662;23.352;2023-05-07T09:45:28;3.75;;;3.15;;
41061;SDS011;26812;42.662;23.352;2023-05-07T09:47:55;4.38;;;3.53;;
41061;SDS011;26812;42.662;23.352;2023-05-07T09:50:24;3.33;;;2.97;;
41061;SDS011;26812;42.662;23.352;2023-05-07T09:52:52;5.03;;;3.40;;
41061;SDS011;26812;42.662;23.352;2023-05-07T09:55:19;4.50;;;3.65;;
41061;SDS011;26812;42.662;23.352;2023-05-07T09:57:45;4.22;;;3.28;;
41061;SDS011;26812;42.662;23.352;2023-05-07T10:00:12;3.72;;;3.42;;
41061;SDS011;26812;42.662;23.352;2023-05-07T10:02:38;3.45;;;3.15;;
41061;SDS011;26812;42.662;23.352;2023-05-07T10:05:11;5.68;;;3.25;;
41061;SDS011;26812;42.662;23.352;2023-05-07T10:07:39;4.15;;;3.28;;
41061;SDS011;26812;42.662;23.352;2023-05-07T10:10:05;4.90;;;3.25;;
41061;SDS011;26812;42.662;23.352;2023-05-07T10:12:31;3.30;;;2.88;;
41061;SDS011;26812;42.662;23.352;2023-05-07T10:15:03;5.55;;;2.80;;
41061;SDS011;26812;42.662;23.352;2023-05-07T10:17:30;3.67;;;2.80;;
41061;SDS011;26812;42.662;23.352;2023-05-07T10:19:56;3.80;;;3.10;;
41061;SDS011;26812;42.662;23.352;2023-05-07T10:22:22;5.40;;;3.13;;
41061;SDS011;26812;42.662;23.352;2023-05-07T10:24:50;3.40;;;3.10;;
41061;SDS011;26812;42.662;23.352;2023-05-07T10:27:36;2.95;;;2.40;;
41061;SDS011;26812;42.662;23.352;2023-05-07T10:32:51;3.33;;;2.45;;
41061;SDS011;26812;42.662;23.352;2023-05-07T10:35:21;4.90;;;2.92;;
41061;SDS011;26812;42.662;23.352;2023-05-07T10:37:50;3.75;;;2.85;;
41061;SDS011;26812;42.662;23.352;2023-05-07T10:40:16;3.17;;;2.88;;
41061;SDS011;26812;42.662;23.352;2023-05-07T10:43:15;3.10;;;2.80;;
41061;SDS011;26812;42.662;23.352;2023-05-07T10:45:34;2.97;;;2.58;;
41061;SDS011;26812;42.662;23.352;2023-05-07T10:50:39;2.85;;;2.60;;
41061;SDS011;26812;42.662;23.352;2023-05-07T10:58:43;3.40;;;2.70;;
41061;SDS011;26812;42.662;23.352;2023-05-07T11:01:09;2.75;;;2.55;;
41061;SDS011;26812;42.662;23.352;2023-05-07T11:03:36;4.22;;;2.47;;
41061;SDS011;26812;42.662;23.352;2023-05-07T11:06:38;2.63;;;2.42;;
41061;SDS011;26812;42.662;23.352;2023-05-07T11:09:03;4.50;;;2.55;;
41061;SDS011;26812;42.662;23.352;2023-05-07T11:11:47;3.45;;;2.40;;
41061;SDS011;26812;42.662;23.352;2023-05-07T11:17:07;3.28;;;2.97;;
41061;SDS011;26812;42.662;23.352;2023-05-07T11:19:52;3.22;;;2.92;;
41061;SDS011;26812;42.662;23.352;2023-05-07T11:24:57;4.60;;;2.88;;
41061;SDS011;26812;42.662;23.352;2023-05-07T11:27:25;2.72;;;2.53;;
41061;SDS011;26812;42.662;23.352;2023-05-07T11:29:51;2.90;;;2.60;;
41061;SDS011;26812;42.662;23.352;2023-05-07T11:32:29;3.42;;;2.78;;
41061;SDS011;26812;42.662;23.352;2023-05-07T11:34:59;4.15;;;2.80;;
41061;SDS011;26812;42.662;23.352;2023-05-07T11:37:25;4.38;;;3.15;;
41061;SDS011;26812;42.662;23.352;2023-05-07T11:40:08;3.20;;;2.90;;
41061;SDS011;26812;42.662;23.352;2023-05-07T11:42:36;2.60;;;2.40;;
41061;SDS011;26812;42.662;23.352;2023-05-07T11:45:03;2.90;;;2.60;;
41061;SDS011;26812;42.662;23.352;2023-05-07T11:47:32;3.42;;;2.92;;
41061;SDS011;26812;42.662;23.352;2023-05-07T11:50:03;4.75;;;3.25;;
41061;SDS011;26812;42.662;23.352;2023-05-07T11:52:33;3.10;;;2.78;;
41061;SDS011;26812;42.662;23.352;2023-05-07T11:54:59;2.97;;;2.67;;
41061;SDS011;26812;42.662;23.352;2023-05-07T11:57:29;3.22;;;2.90;;
41061;SDS011;26812;42.662;23.352;2023-05-07T11:59:55;4.05;;;2.97;;
41061;SDS011;26812;42.662;23.352;2023-05-07T12:02:21;3.10;;;2.90;;
41061;SDS011;26812;42.662;23.352;2023-05-07T12:04:47;4.35;;;3.63;;
41061;SDS011;26812;42.662;23.352;2023-05-07T12:07:12;2.88;;;2.67;;
41061;SDS011;26812;42.662;23.352;2023-05-07T12:09:41;4.95;;;3.13;;
41061;SDS011;26812;42.662;23.352;2023-05-07T12:12:07;2.80;;;2.60;;
41061;SDS011;26812;42.662;23.352;2023-05-07T12:14:37;3.90;;;2.90;;
41061;SDS011;26812;42.662;23.352;2023-05-07T12:17:04;3.83;;;3.50;;
41061;SDS011;26812;42.662;23.352;2023-05-07T12:19:30;3.50;;;3.03;;
41061;SDS011;26812;42.662;23.352;2023-05-07T12:21:56;3.40;;;3.10;;
41061;SDS011;26812;42.662;23.352;2023-05-07T12:24:22;3.13;;;2.70;;
41061;SDS011;26812;42.662;23.352;2023-05-07T12:26:48;3.63;;;3.15;;
41061;SDS011;26812;42.662;23.352;2023-05-07T12:29:14;3.45;;;3.10;;
41061;SDS011;26812;42.662;23.352;2023-05-07T12:31:42;2.88;;;2.67;;
41061;SDS011;26812;42.662;23.352;2023-05-07T12:34:11;4.35;;;3.13;;
41061;SDS011;26812;42.662;23.352;2023-05-07T12:36:40;3.53;;;3.20;;
41061;SDS011;26812;42.662;23.352;2023-05-07T12:39:06;4.20;;;3.80;;
41061;SDS011;26812;42.662;23.352;2023-05-07T12:41:35;4.15;;;3.70;;
41061;SDS011;26812;42.662;23.352;2023-05-07T12:44:17;4.20;;;2.92;;
41061;SDS011;26812;42.662;23.352;2023-05-07T12:46:42;3.30;;;2.97;;
41061;SDS011;26812;42.662;23.352;2023-05-07T12:49:08;3.03;;;2.72;;
41061;SDS011;26812;42.662;23.352;2023-05-07T12:51:34;2.25;;;2.00;;
41061;SDS011;26812;42.662;23.352;2023-05-07T12:54:00;3.58;;;1.95;;
41061;SDS011;26812;42.662;23.352;2023-05-07T12:56:25;2.55;;;2.35;;
41061;SDS011;26812;42.662;23.352;2023-05-07T12:58:51;2.47;;;1.67;;
41061;SDS011;26812;42.662;23.352;2023-05-07T13:01:16;2.00;;;1.80;;
41061;SDS011;26812;42.662;23.352;2023-05-07T13:03:47;2.42;;;2.08;;
41061;SDS011;26812;42.662;23.352;2023-05-07T13:06:15;2.20;;;2.00;;
41061;SDS011;26812;42.662;23.352;2023-05-07T13:08:41;4.35;;;3.03;;
41061;SDS011;26812;42.662;23.352;2023-05-07T13:11:10;3.22;;;2.28;;
41061;SDS011;26812;42.662;23.352;2023-05-07T13:13:36;3.25;;;2.15;;
41061;SDS011;26812;42.662;23.352;2023-05-07T13:16:02;2.53;;;2.15;;
41061;SDS011;26812;42.662;23.352;2023-05-07T13:18:30;2.00;;;1.90;;
41061;SDS011;26812;42.662;23.352;2023-05-07T13:20:56;3.30;;;2.30;;
41061;SDS011;26812;42.662;23.352;2023-05-07T13:23:22;5.18;;;2.60;;
41061;SDS011;26812;42.662;23.352;2023-05-07T13:25:47;3.63;;;2.75;;
41061;SDS011;26812;42.662;23.352;2023-05-07T13:28:14;3.25;;;2.13;;
41061;SDS011;26812;42.662;23.352;2023-05-07T13:30:39;3.83;;;2.35;;
41061;SDS011;26812;42.662;23.352;2023-05-07T13:33:05;3.58;;;2.22;;
41061;SDS011;26812;42.662;23.352;2023-05-07T13:35:32;2.58;;;2.08;;
41061;SDS011;26812;42.662;23.352;2023-05-07T13:37:57;1.90;;;1.75;;
41061;SDS011;26812;42.662;23.352;2023-05-07T13:40:23;2.83;;;2.10;;
41061;SDS011;26812;42.662;23.352;2023-05-07T13:42:48;2.55;;;2.15;;
41061;SDS011;26812;42.662;23.352;2023-05-07T13:45:15;3.05;;;2.50;;
41061;SDS011;26812;42.662;23.352;2023-05-07T13:47:41;3.20;;;2.33;;
41061;SDS011;26812;42.662;23.352;2023-05-07T13:50:10;2.22;;;2.03;;
41061;SDS011;26812;42.662;23.352;2023-05-07T13:52:36;3.35;;;2.00;;
41061;SDS011;26812;42.662;23.352;2023-05-07T13:55:02;2.40;;;2.20;;
41061;SDS011;26812;42.662;23.352;2023-05-07T13:57:28;2.13;;;2.03;;
41061;SDS011;26812;42.662;23.352;2023-05-07T13:59:54;3.17;;;1.92;;
41061;SDS011;26812;42.662;23.352;2023-05-07T14:02:19;2.63;;;1.75;;
41061;SDS011;26812;42.662;23.352;2023-05-07T14:04:45;2.28;;;1.80;;
41061;SDS011;26812;42.662;23.352;2023-05-07T14:07:10;2.08;;;1.90;;
41061;SDS011;26812;42.662;23.352;2023-05-07T14:09:35;2.20;;;2.00;;
41061;SDS011;26812;42.662;23.352;2023-05-07T14:12:01;2.55;;;1.83;;
41061;SDS011;26812;42.662;23.352;2023-05-07T14:14:26;2.60;;;2.08;;
41061;SDS011;26812;42.662;23.352;2023-05-07T14:16:52;2.20;;;2.00;;
41061;SDS011;26812;42.662;23.352;2023-05-07T14:19:17;3.28;;;2.40;;
41061;SDS011;26812;42.662;23.352;2023-05-07T14:21:43;3.17;;;2.33;;
41061;SDS011;26812;42.662;23.352;2023-05-07T14:24:08;1.90;;;1.73;;
41061;SDS011;26812;42.662;23.352;2023-05-07T14:26:35;2.38;;;2.17;;
41061;SDS011;26812;42.662;23.352;2023-05-07T14:29:00;4.32;;;2.33;;
41061;SDS011;26812;42.662;23.352;2023-05-07T14:31:26;6.72;;;3.08;;
41061;SDS011;26812;42.662;23.352;2023-05-07T14:33:51;2.20;;;2.00;;
41061;SDS011;26812;42.662;23.352;2023-05-07T14:36:17;4.53;;;3.63;;
41061;SDS011;26812;42.662;23.352;2023-05-07T14:38:45;13.27;;;3.95;;
41061;SDS011;26812;42.662;23.352;2023-05-07T14:41:11;3.47;;;2.28;;
41061;SDS011;26812;42.662;23.352;2023-05-07T14:43:36;5.45;;;2.70;;
41061;SDS011;26812;42.662;23.352;2023-05-07T14:46:02;8.07;;;3.13;;